sensor_id;sensor_type;location;lat;lon;timestamp;P1;durP1;ratioP1;P2;durP2;ratioP2
34565;SDS011;20803;42.676;26.348;2023-10-08T00:00:24;6.70;;;4.60;;
34565;SDS011;20803;42.676;26.348;2023-10-08T00:03:10;8.33;;;4.90;;
34565;SDS011;20803;42.676;26.348;2023-10-08T00:05:37;7.17;;;5.20;;
34565;SDS011;20803;42.676;26.348;2023-10-08T00:08:04;10.67;;;4.77;;
34565;SDS011;20803;42.676;26.348;2023-10-08T00:10:36;6.23;;;4.53;;
34565;SDS011;20803;42.676;26.348;2023-10-08T00:13:05;7.27;;;4.50;;
34565;SDS011;20803;42.676;26.348;2023-10-08T00:15:33;7.17;;;4.83;;
34565;SDS011;20803;42.676;26.348;2023-10-08T00:18:01;7.43;;;4.60;;
34565;SDS011;20803;42.676;26.348;2023-10-08T00:20:27;10.67;;;4.73;;
34565;SDS011;20803;42.676;26.348;2023-10-08T00:23:00;9.20;;;4.80;;
34565;SDS011;20803;42.676;26.348;2023-10-08T00:25:28;6.67;;;4.40;;
34565;SDS011;20803;42.676;26.348;2023-10-08T00:27:56;12.27;;;5.70;;
34565;SDS011;20803;42.676;26.348;2023-10-08T00:30:21;7.07;;;4.23;;
34565;SDS011;20803;42.676;26.348;2023-10-08T00:32:47;8.77;;;4.80;;
34565;SDS011;20803;42.676;26.348;2023-10-08T00:35:12;5.83;;;4.07;;
34565;SDS011;20803;42.676;26.348;2023-10-08T00:37:45;7.50;;;4.80;;
34565;SDS011;20803;42.676;26.348;2023-10-08T00:40:13;6.40;;;4.33;;
34565;SDS011;20803;42.676;26.348;2023-10-08T00:42:44;6.13;;;4.40;;
34565;SDS011;20803;42.676;26.348;2023-10-08T00:45:11;7.57;;;4.70;;
34565;SDS011;20803;42.676;26.348;2023-10-08T00:47:40;7.57;;;4.30;;
34565;SDS011;20803;42.676;26.348;2023-10-08T00:50:11;6.33;;;4.87;;
34565;SDS011;20803;42.676;26.348;2023-10-08T00:52:46;9.80;;;4.80;;
34565;SDS011;20803;42.676;26.348;2023-10-08T00:55:25;7.37;;;5.20;;
34565;SDS011;20803;42.676;26.348;2023-10-08T00:57:57;7.67;;;5.37;;
34565;SDS011;20803;42.676;26.348;2023-10-08T01:00:24;13.10;;;5.53;;
34565;SDS011;20803;42.676;26.348;2023-10-08T01:02:58;7.97;;;5.13;;
34565;SDS011;20803;42.676;26.348;2023-10-08T01:05:27;9.33;;;5.70;;
34565;SDS011;20803;42.676;26.348;2023-10-08T01:08:11;10.90;;;5.57;;
34565;SDS011;20803;42.676;26.348;2023-10-08T01:10:42;8.50;;;5.03;;
34565;SDS011;20803;42.676;26.348;2023-10-08T01:13:08;11.63;;;5.87;;
34565;SDS011;20803;42.676;26.348;2023-10-08T01:15:40;6.87;;;4.67;;
34565;SDS011;20803;42.676;26.348;2023-10-08T01:18:06;7.20;;;5.00;;
34565;SDS011;20803;42.676;26.348;2023-10-08T01:20:39;9.03;;;5.23;;
34565;SDS011;20803;42.676;26.348;2023-10-08T01:23:13;7.07;;;5.40;;
34565;SDS011;20803;42.676;26.348;2023-10-08T01:25:42;7.30;;;5.20;;
34565;SDS011;20803;42.676;26.348;2023-10-08T01:28:08;9.87;;;5.37;;
34565;SDS011;20803;42.676;26.348;2023-10-08T01:30:43;8.73;;;4.73;;
34565;SDS011;20803;42.676;26.348;2023-10-08T01:33:11;9.33;;;5.07;;
34565;SDS011;20803;42.676;26.348;2023-10-08T01:35:39;10.60;;;5.07;;
34565;SDS011;20803;42.676;26.348;2023-10-08T01:38:05;8.57;;;4.90;;
34565;SDS011;20803;42.676;26.348;2023-10-08T01:40:31;8.33;;;4.80;;
34565;SDS011;20803;42.676;26.348;2023-10-08T01:42:57;9.83;;;5.57;;
34565;SDS011;20803;42.676;26.348;2023-10-08T01:45:25;8.30;;;4.70;;
34565;SDS011;20803;42.676;26.348;2023-10-08T01:47:51;8.20;;;5.50;;
34565;SDS011;20803;42.676;26.348;2023-10-08T01:50:20;11.03;;;5.53;;
34565;SDS011;20803;42.676;26.348;2023-10-08T01:52:54;10.40;;;5.73;;
34565;SDS011;20803;42.676;26.348;2023-10-08T01:55:20;7.73;;;4.90;;
34565;SDS011;20803;42.676;26.348;2023-10-08T01:57:48;8.00;;;5.33;;
34565;SDS011;20803;42.676;26.348;2023-10-08T02:00:14;7.43;;;5.10;;
34565;SDS011;20803;42.676;26.348;2023-10-08T02:02:44;7.90;;;5.10;;
34565;SDS011;20803;42.676;26.348;2023-10-08T02:05:17;7.30;;;4.80;;
34565;SDS011;20803;42.676;26.348;2023-10-08T02:07:44;8.57;;;5.00;;
34565;SDS011;20803;42.676;26.348;2023-10-08T02:10:10;7.97;;;4.73;;
34565;SDS011;20803;42.676;26.348;2023-10-08T02:12:39;8.43;;;5.10;;
34565;SDS011;20803;42.676;26.348;2023-10-08T02:15:08;9.00;;;5.33;;
34565;SDS011;20803;42.676;26.348;2023-10-08T02:17:36;6.90;;;4.43;;
34565;SDS011;20803;42.676;26.348;2023-10-08T02:20:02;6.00;;;4.40;;
34565;SDS011;20803;42.676;26.348;2023-10-08T02:22:30;9.60;;;4.63;;
34565;SDS011;20803;42.676;26.348;2023-10-08T02:24:58;10.43;;;4.67;;
34565;SDS011;20803;42.676;26.348;2023-10-08T02:27:27;7.70;;;4.43;;
34565;SDS011;20803;42.676;26.348;2023-10-08T02:29:53;7.67;;;4.43;;
34565;SDS011;20803;42.676;26.348;2023-10-08T02:32:19;7.37;;;4.20;;
34565;SDS011;20803;42.676;26.348;2023-10-08T02:34:47;6.00;;;4.00;;
34565;SDS011;20803;42.676;26.348;2023-10-08T02:37:13;7.90;;;4.33;;
34565;SDS011;20803;42.676;26.348;2023-10-08T02:39:40;6.27;;;3.70;;
34565;SDS011;20803;42.676;26.348;2023-10-08T02:42:05;7.03;;;4.03;;
34565;SDS011;20803;42.676;26.348;2023-10-08T02:44:35;6.77;;;4.27;;
34565;SDS011;20803;42.676;26.348;2023-10-08T02:47:07;5.03;;;3.70;;
34565;SDS011;20803;42.676;26.348;2023-10-08T02:49:34;8.13;;;3.97;;
34565;SDS011;20803;42.676;26.348;2023-10-08T02:52:01;7.20;;;4.13;;
34565;SDS011;20803;42.676;26.348;2023-10-08T02:54:29;6.37;;;4.47;;
34565;SDS011;20803;42.676;26.348;2023-10-08T02:57:01;7.00;;;4.67;;
34565;SDS011;20803;42.676;26.348;2023-10-08T02:59:29;7.23;;;4.53;;
34565;SDS011;20803;42.676;26.348;2023-10-08T03:02:10;6.87;;;4.73;;
34565;SDS011;20803;42.676;26.348;2023-10-08T03:04:46;14.83;;;4.97;;
34565;SDS011;20803;42.676;26.348;2023-10-08T03:07:16;10.23;;;4.80;;
34565;SDS011;20803;42.676;26.348;2023-10-08T03:09:57;8.47;;;5.00;;
34565;SDS011;20803;42.676;26.348;2023-10-08T03:12:31;9.97;;;5.43;;
34565;SDS011;20803;42.676;26.348;2023-10-08T03:15:01;6.77;;;4.40;;
34565;SDS011;20803;42.676;26.348;2023-10-08T03:17:48;12.23;;;4.50;;
34565;SDS011;20803;42.676;26.348;2023-10-08T03:20:14;7.43;;;4.67;;
34565;SDS011;20803;42.676;26.348;2023-10-08T03:22:56;7.80;;;5.00;;
34565;SDS011;20803;42.676;26.348;2023-10-08T03:25:24;8.83;;;5.47;;
34565;SDS011;20803;42.676;26.348;2023-10-08T03:27:51;8.57;;;4.70;;
34565;SDS011;20803;42.676;26.348;2023-10-08T03:30:19;10.13;;;5.10;;
34565;SDS011;20803;42.676;26.348;2023-10-08T03:32:45;7.83;;;4.97;;
34565;SDS011;20803;42.676;26.348;2023-10-08T03:35:15;13.10;;;4.77;;
34565;SDS011;20803;42.676;26.348;2023-10-08T03:37:42;9.50;;;4.27;;
34565;SDS011;20803;42.676;26.348;2023-10-08T03:40:11;9.83;;;5.23;;
34565;SDS011;20803;42.676;26.348;2023-10-08T03:42:55;7.13;;;4.73;;
34565;SDS011;20803;42.676;26.348;2023-10-08T03:45:21;9.43;;;4.83;;
34565;SDS011;20803;42.676;26.348;2023-10-08T03:48:06;9.10;;;4.83;;
34565;SDS011;20803;42.676;26.348;2023-10-08T03:50:33;8.63;;;4.17;;
34565;SDS011;20803;42.676;26.348;2023-10-08T03:53:06;9.37;;;4.57;;
34565;SDS011;20803;42.676;26.348;2023-10-08T03:55:40;8.60;;;5.33;;
34565;SDS011;20803;42.676;26.348;2023-10-08T03:58:08;7.03;;;4.90;;
34565;SDS011;20803;42.676;26.348;2023-10-08T04:00:52;8.17;;;4.93;;
34565;SDS011;20803;42.676;26.348;2023-10-08T04:03:33;6.80;;;4.43;;
34565;SDS011;20803;42.676;26.348;2023-10-08T04:06:18;9.13;;;5.40;;
34565;SDS011;20803;42.676;26.348;2023-10-08T04:08:48;9.13;;;5.40;;
34565;SDS011;20803;42.676;26.348;2023-10-08T04:11:32;6.87;;;4.80;;
34565;SDS011;20803;42.676;26.348;2023-10-08T04:14:00;10.07;;;4.97;;
34565;SDS011;20803;42.676;26.348;2023-10-08T04:16:29;12.33;;;5.17;;
34565;SDS011;20803;42.676;26.348;2023-10-08T04:19:01;7.80;;;5.30;;
34565;SDS011;20803;42.676;26.348;2023-10-08T04:21:28;8.17;;;4.93;;
34565;SDS011;20803;42.676;26.348;2023-10-08T04:23:54;8.03;;;4.90;;
34565;SDS011;20803;42.676;26.348;2023-10-08T04:26:23;10.37;;;5.20;;
34565;SDS011;20803;42.676;26.348;2023-10-08T04:28:56;10.83;;;5.07;;
34565;SDS011;20803;42.676;26.348;2023-10-08T04:31:28;8.70;;;5.40;;
34565;SDS011;20803;42.676;26.348;2023-10-08T04:34:03;8.67;;;5.73;;
34565;SDS011;20803;42.676;26.348;2023-10-08T04:36:42;9.67;;;5.67;;
34565;SDS011;20803;42.676;26.348;2023-10-08T04:39:10;8.63;;;5.73;;
34565;SDS011;20803;42.676;26.348;2023-10-08T04:41:46;8.17;;;5.10;;
34565;SDS011;20803;42.676;26.348;2023-10-08T04:44:13;10.47;;;5.83;;
34565;SDS011;20803;42.676;26.348;2023-10-08T04:46:42;8.37;;;5.83;;
34565;SDS011;20803;42.676;26.348;2023-10-08T04:49:11;10.80;;;5.33;;
34565;SDS011;20803;42.676;26.348;2023-10-08T04:51:51;8.90;;;4.90;;
34565;SDS011;20803;42.676;26.348;2023-10-08T04:54:19;8.57;;;5.80;;
34565;SDS011;20803;42.676;26.348;2023-10-08T04:56:45;7.57;;;5.63;;
34565;SDS011;20803;42.676;26.348;2023-10-08T04:59:14;12.23;;;6.00;;
34565;SDS011;20803;42.676;26.348;2023-10-08T05:01:39;10.13;;;5.73;;
34565;SDS011;20803;42.676;26.348;2023-10-08T05:04:27;10.07;;;6.00;;
34565;SDS011;20803;42.676;26.348;2023-10-08T05:06:58;9.83;;;6.10;;
34565;SDS011;20803;42.676;26.348;2023-10-08T05:09:42;10.90;;;6.17;;
34565;SDS011;20803;42.676;26.348;2023-10-08T05:12:17;6.90;;;5.20;;
34565;SDS011;20803;42.676;26.348;2023-10-08T05:14:59;13.60;;;6.67;;
34565;SDS011;20803;42.676;26.348;2023-10-08T05:17:41;8.63;;;6.17;;
34565;SDS011;20803;42.676;26.348;2023-10-08T05:20:20;13.73;;;6.13;;
34565;SDS011;20803;42.676;26.348;2023-10-08T05:23:09;13.43;;;6.27;;
34565;SDS011;20803;42.676;26.348;2023-10-08T05:25:54;12.67;;;6.30;;
34565;SDS011;20803;42.676;26.348;2023-10-08T05:28:33;14.97;;;7.23;;
34565;SDS011;20803;42.676;26.348;2023-10-08T05:31:22;15.83;;;9.43;;
34565;SDS011;20803;42.676;26.348;2023-10-08T05:34:08;19.77;;;12.30;;
34565;SDS011;20803;42.676;26.348;2023-10-08T05:36:42;19.97;;;12.47;;
34565;SDS011;20803;42.676;26.348;2023-10-08T05:39:27;19.37;;;11.23;;
34565;SDS011;20803;42.676;26.348;2023-10-08T05:42:05;11.30;;;8.00;;
34565;SDS011;20803;42.676;26.348;2023-10-08T05:44:56;11.87;;;7.30;;
34565;SDS011;20803;42.676;26.348;2023-10-08T05:47:34;12.80;;;7.87;;
34565;SDS011;20803;42.676;26.348;2023-10-08T05:50:00;11.57;;;7.20;;
34565;SDS011;20803;42.676;26.348;2023-10-08T05:52:41;9.60;;;7.83;;
34565;SDS011;20803;42.676;26.348;2023-10-08T05:55:33;12.33;;;7.63;;
34565;SDS011;20803;42.676;26.348;2023-10-08T05:58:03;13.57;;;7.50;;
34565;SDS011;20803;42.676;26.348;2023-10-08T06:00:48;14.60;;;6.97;;
34565;SDS011;20803;42.676;26.348;2023-10-08T06:03:32;12.10;;;6.53;;
34565;SDS011;20803;42.676;26.348;2023-10-08T06:06:03;11.90;;;6.53;;
34565;SDS011;20803;42.676;26.348;2023-10-08T06:08:38;7.93;;;5.10;;
34565;SDS011;20803;42.676;26.348;2023-10-08T06:11:15;6.97;;;5.70;;
34565;SDS011;20803;42.676;26.348;2023-10-08T06:13:59;7.80;;;5.60;;
34565;SDS011;20803;42.676;26.348;2023-10-08T06:16:26;10.57;;;6.03;;
34565;SDS011;20803;42.676;26.348;2023-10-08T06:19:07;9.40;;;5.83;;
34565;SDS011;20803;42.676;26.348;2023-10-08T06:21:34;8.47;;;6.27;;
34565;SDS011;20803;42.676;26.348;2023-10-08T06:24:02;9.90;;;5.97;;
34565;SDS011;20803;42.676;26.348;2023-10-08T06:26:33;10.23;;;6.17;;
34565;SDS011;20803;42.676;26.348;2023-10-08T06:29:03;9.73;;;5.97;;
34565;SDS011;20803;42.676;26.348;2023-10-08T06:31:43;9.63;;;6.20;;
34565;SDS011;20803;42.676;26.348;2023-10-08T06:34:15;13.27;;;6.43;;
34565;SDS011;20803;42.676;26.348;2023-10-08T06:36:41;9.10;;;6.60;;
34565;SDS011;20803;42.676;26.348;2023-10-08T06:39:07;11.70;;;5.63;;
34565;SDS011;20803;42.676;26.348;2023-10-08T06:41:36;10.27;;;5.37;;
34565;SDS011;20803;42.676;26.348;2023-10-08T06:44:02;8.93;;;5.70;;
34565;SDS011;20803;42.676;26.348;2023-10-08T06:46:28;8.93;;;6.33;;
34565;SDS011;20803;42.676;26.348;2023-10-08T06:48:58;10.07;;;5.73;;
34565;SDS011;20803;42.676;26.348;2023-10-08T06:51:36;7.77;;;5.37;;
34565;SDS011;20803;42.676;26.348;2023-10-08T06:54:07;10.47;;;6.60;;
34565;SDS011;20803;42.676;26.348;2023-10-08T06:56:35;10.63;;;6.00;;
34565;SDS011;20803;42.676;26.348;2023-10-08T06:59:01;9.60;;;6.53;;
34565;SDS011;20803;42.676;26.348;2023-10-08T07:01:28;10.00;;;6.23;;
34565;SDS011;20803;42.676;26.348;2023-10-08T07:04:04;10.07;;;7.20;;
34565;SDS011;20803;42.676;26.348;2023-10-08T07:06:31;9.13;;;6.83;;
34565;SDS011;20803;42.676;26.348;2023-10-08T07:08:59;10.77;;;6.97;;
34565;SDS011;20803;42.676;26.348;2023-10-08T07:11:29;7.77;;;6.07;;
34565;SDS011;20803;42.676;26.348;2023-10-08T07:13:59;10.10;;;6.40;;
34565;SDS011;20803;42.676;26.348;2023-10-08T07:16:26;12.63;;;6.67;;
34565;SDS011;20803;42.676;26.348;2023-10-08T07:18:53;8.47;;;6.20;;
34565;SDS011;20803;42.676;26.348;2023-10-08T07:21:23;8.43;;;6.03;;
34565;SDS011;20803;42.676;26.348;2023-10-08T07:23:57;15.50;;;7.33;;
34565;SDS011;20803;42.676;26.348;2023-10-08T07:26:27;9.97;;;6.37;;
34565;SDS011;20803;42.676;26.348;2023-10-08T07:29:04;13.00;;;7.20;;
34565;SDS011;20803;42.676;26.348;2023-10-08T07:31:34;9.90;;;6.40;;
34565;SDS011;20803;42.676;26.348;2023-10-08T07:34:06;12.83;;;7.60;;
34565;SDS011;20803;42.676;26.348;2023-10-08T07:36:42;13.23;;;6.67;;
34565;SDS011;20803;42.676;26.348;2023-10-08T07:39:09;11.50;;;6.70;;
34565;SDS011;20803;42.676;26.348;2023-10-08T07:41:48;14.93;;;7.70;;
34565;SDS011;20803;42.676;26.348;2023-10-08T07:44:15;12.50;;;7.97;;
34565;SDS011;20803;42.676;26.348;2023-10-08T07:46:40;19.00;;;9.60;;
34565;SDS011;20803;42.676;26.348;2023-10-08T07:49:06;13.47;;;8.03;;
34565;SDS011;20803;42.676;26.348;2023-10-08T07:51:31;12.63;;;9.23;;
34565;SDS011;20803;42.676;26.348;2023-10-08T07:53:57;14.53;;;8.23;;
34565;SDS011;20803;42.676;26.348;2023-10-08T07:56:23;14.77;;;8.30;;
34565;SDS011;20803;42.676;26.348;2023-10-08T07:58:49;17.33;;;8.87;;
34565;SDS011;20803;42.676;26.348;2023-10-08T08:01:15;11.13;;;8.20;;
34565;SDS011;20803;42.676;26.348;2023-10-08T08:03:40;9.27;;;7.47;;
34565;SDS011;20803;42.676;26.348;2023-10-08T08:06:07;12.80;;;7.23;;
34565;SDS011;20803;42.676;26.348;2023-10-08T08:08:34;11.50;;;8.37;;
34565;SDS011;20803;42.676;26.348;2023-10-08T08:11:04;19.73;;;8.73;;
34565;SDS011;20803;42.676;26.348;2023-10-08T08:13:42;10.57;;;7.47;;
34565;SDS011;20803;42.676;26.348;2023-10-08T08:16:08;14.10;;;8.27;;
34565;SDS011;20803;42.676;26.348;2023-10-08T08:18:59;13.90;;;8.00;;
34565;SDS011;20803;42.676;26.348;2023-10-08T08:21:25;10.77;;;6.97;;
34565;SDS011;20803;42.676;26.348;2023-10-08T08:23:50;15.63;;;8.03;;
34565;SDS011;20803;42.676;26.348;2023-10-08T08:26:18;13.57;;;7.50;;
34565;SDS011;20803;42.676;26.348;2023-10-08T08:29:01;12.83;;;7.43;;
34565;SDS011;20803;42.676;26.348;2023-10-08T08:31:29;12.97;;;7.50;;
34565;SDS011;20803;42.676;26.348;2023-10-08T08:34:00;12.70;;;6.97;;
34565;SDS011;20803;42.676;26.348;2023-10-08T08:36:45;11.07;;;7.37;;
34565;SDS011;20803;42.676;26.348;2023-10-08T08:39:12;11.77;;;6.90;;
34565;SDS011;20803;42.676;26.348;2023-10-08T08:41:54;10.23;;;6.90;;
34565;SDS011;20803;42.676;26.348;2023-10-08T08:44:25;12.60;;;7.23;;
34565;SDS011;20803;42.676;26.348;2023-10-08T08:47:00;16.93;;;7.60;;
34565;SDS011;20803;42.676;26.348;2023-10-08T08:49:32;10.97;;;7.10;;
34565;SDS011;20803;42.676;26.348;2023-10-08T08:52:02;13.23;;;6.50;;
34565;SDS011;20803;42.676;26.348;2023-10-08T08:54:29;9.60;;;7.03;;
34565;SDS011;20803;42.676;26.348;2023-10-08T08:56:57;15.17;;;7.47;;
34565;SDS011;20803;42.676;26.348;2023-10-08T08:59:29;13.70;;;6.80;;
34565;SDS011;20803;42.676;26.348;2023-10-08T09:01:56;12.57;;;6.50;;
34565;SDS011;20803;42.676;26.348;2023-10-08T09:04:32;11.80;;;6.10;;
34565;SDS011;20803;42.676;26.348;2023-10-08T09:07:01;11.13;;;6.47;;
34565;SDS011;20803;42.676;26.348;2023-10-08T09:09:33;9.23;;;6.17;;
34565;SDS011;20803;42.676;26.348;2023-10-08T09:12:00;13.43;;;7.40;;
34565;SDS011;20803;42.676;26.348;2023-10-08T09:14:26;11.60;;;6.43;;
34565;SDS011;20803;42.676;26.348;2023-10-08T09:16:57;9.60;;;6.03;;
34565;SDS011;20803;42.676;26.348;2023-10-08T09:19:24;8.33;;;5.97;;
34565;SDS011;20803;42.676;26.348;2023-10-08T09:24:29;9.47;;;5.70;;
34565;SDS011;20803;42.676;26.348;2023-10-08T09:26:55;9.87;;;5.90;;
34565;SDS011;20803;42.676;26.348;2023-10-08T09:29:24;11.97;;;6.00;;
34565;SDS011;20803;42.676;26.348;2023-10-08T09:31:54;8.27;;;5.53;;
34565;SDS011;20803;42.676;26.348;2023-10-08T09:34:21;8.40;;;4.67;;
34565;SDS011;20803;42.676;26.348;2023-10-08T09:36:51;15.00;;;6.23;;
34565;SDS011;20803;42.676;26.348;2023-10-08T09:39:18;13.03;;;6.60;;
34565;SDS011;20803;42.676;26.348;2023-10-08T09:41:49;9.03;;;4.90;;
34565;SDS011;20803;42.676;26.348;2023-10-08T09:44:16;18.50;;;4.43;;
34565;SDS011;20803;42.676;26.348;2023-10-08T09:46:44;11.03;;;3.50;;
34565;SDS011;20803;42.676;26.348;2023-10-08T09:49:17;10.00;;;4.17;;
34565;SDS011;20803;42.676;26.348;2023-10-08T09:51:49;77.93;;;10.87;;
34565;SDS011;20803;42.676;26.348;2023-10-08T09:56:47;9.17;;;3.90;;
34565;SDS011;20803;42.676;26.348;2023-10-08T09:59:13;7.60;;;4.00;;
34565;SDS011;20803;42.676;26.348;2023-10-08T10:01:42;7.57;;;3.93;;
34565;SDS011;20803;42.676;26.348;2023-10-08T10:04:09;8.43;;;4.13;;
34565;SDS011;20803;42.676;26.348;2023-10-08T10:06:35;5.20;;;3.50;;
34565;SDS011;20803;42.676;26.348;2023-10-08T10:09:01;6.63;;;3.67;;
34565;SDS011;20803;42.676;26.348;2023-10-08T10:11:33;11.33;;;3.40;;
34565;SDS011;20803;42.676;26.348;2023-10-08T10:13:59;8.67;;;3.23;;
34565;SDS011;20803;42.676;26.348;2023-10-08T10:16:25;8.80;;;3.67;;
34565;SDS011;20803;42.676;26.348;2023-10-08T10:18:54;9.40;;;4.10;;
34565;SDS011;20803;42.676;26.348;2023-10-08T10:21:24;6.77;;;3.70;;
34565;SDS011;20803;42.676;26.348;2023-10-08T10:23:52;7.27;;;3.83;;
34565;SDS011;20803;42.676;26.348;2023-10-08T10:26:32;10.80;;;4.27;;
34565;SDS011;20803;42.676;26.348;2023-10-08T10:31:38;11.57;;;3.97;;
34565;SDS011;20803;42.676;26.348;2023-10-08T10:34:11;21.10;;;4.03;;
34565;SDS011;20803;42.676;26.348;2023-10-08T10:36:44;8.73;;;3.93;;
34565;SDS011;20803;42.676;26.348;2023-10-08T10:39:14;6.87;;;3.90;;
34565;SDS011;20803;42.676;26.348;2023-10-08T10:41:44;8.03;;;3.77;;
34565;SDS011;20803;42.676;26.348;2023-10-08T10:44:12;8.60;;;3.30;;
34565;SDS011;20803;42.676;26.348;2023-10-08T10:46:39;9.80;;;4.03;;
34565;SDS011;20803;42.676;26.348;2023-10-08T10:49:07;7.00;;;3.83;;
34565;SDS011;20803;42.676;26.348;2023-10-08T10:51:43;6.90;;;3.77;;
34565;SDS011;20803;42.676;26.348;2023-10-08T10:54:12;9.97;;;3.93;;
34565;SDS011;20803;42.676;26.348;2023-10-08T10:56:45;8.07;;;4.77;;
34565;SDS011;20803;42.676;26.348;2023-10-08T10:59:12;5.43;;;4.20;;
34565;SDS011;20803;42.676;26.348;2023-10-08T11:01:47;10.00;;;3.77;;
34565;SDS011;20803;42.676;26.348;2023-10-08T11:04:18;8.63;;;3.80;;
34565;SDS011;20803;42.676;26.348;2023-10-08T11:06:45;7.17;;;3.60;;
34565;SDS011;20803;42.676;26.348;2023-10-08T11:09:12;7.90;;;4.13;;
34565;SDS011;20803;42.676;26.348;2023-10-08T11:11:48;8.20;;;3.53;;
34565;SDS011;20803;42.676;26.348;2023-10-08T11:14:19;17.43;;;4.63;;
34565;SDS011;20803;42.676;26.348;2023-10-08T11:16:47;8.40;;;3.60;;
34565;SDS011;20803;42.676;26.348;2023-10-08T11:19:13;6.33;;;3.97;;
34565;SDS011;20803;42.676;26.348;2023-10-08T11:24:29;10.17;;;3.83;;
34565;SDS011;20803;42.676;26.348;2023-10-08T11:26:58;13.73;;;4.30;;
34565;SDS011;20803;42.676;26.348;2023-10-08T11:29:41;22.70;;;5.23;;
34565;SDS011;20803;42.676;26.348;2023-10-08T11:32:07;8.60;;;3.83;;
34565;SDS011;20803;42.676;26.348;2023-10-08T11:34:37;14.43;;;4.60;;
34565;SDS011;20803;42.676;26.348;2023-10-08T11:37:04;7.10;;;3.50;;
34565;SDS011;20803;42.676;26.348;2023-10-08T11:39:47;14.10;;;6.83;;
34565;SDS011;20803;42.676;26.348;2023-10-08T11:42:14;12.20;;;7.43;;
34565;SDS011;20803;42.676;26.348;2023-10-08T11:44:58;10.63;;;4.70;;
34565;SDS011;20803;42.676;26.348;2023-10-08T11:47:45;8.90;;;4.10;;
34565;SDS011;20803;42.676;26.348;2023-10-08T11:50:16;5.70;;;3.33;;
34565;SDS011;20803;42.676;26.348;2023-10-08T11:52:44;6.83;;;4.07;;
34565;SDS011;20803;42.676;26.348;2023-10-08T11:55:12;9.07;;;4.13;;
34565;SDS011;20803;42.676;26.348;2023-10-08T11:57:50;9.33;;;4.33;;
34565;SDS011;20803;42.676;26.348;2023-10-08T12:00:18;13.83;;;4.50;;
34565;SDS011;20803;42.676;26.348;2023-10-08T12:02:50;12.33;;;3.80;;
34565;SDS011;20803;42.676;26.348;2023-10-08T12:05:19;8.43;;;3.77;;
34565;SDS011;20803;42.676;26.348;2023-10-08T12:07:49;12.33;;;4.20;;
34565;SDS011;20803;42.676;26.348;2023-10-08T12:10:23;13.10;;;4.27;;
34565;SDS011;20803;42.676;26.348;2023-10-08T12:15:14;17.03;;;4.33;;
34565;SDS011;20803;42.676;26.348;2023-10-08T12:17:45;8.87;;;4.20;;
34565;SDS011;20803;42.676;26.348;2023-10-08T12:20:32;20.83;;;5.37;;
34565;SDS011;20803;42.676;26.348;2023-10-08T12:22:59;12.77;;;4.53;;
34565;SDS011;20803;42.676;26.348;2023-10-08T12:25:25;10.47;;;4.20;;
34565;SDS011;20803;42.676;26.348;2023-10-08T12:27:50;11.53;;;4.10;;
34565;SDS011;20803;42.676;26.348;2023-10-08T12:30:15;9.03;;;4.40;;
34565;SDS011;20803;42.676;26.348;2023-10-08T12:32:41;10.43;;;4.17;;
34565;SDS011;20803;42.676;26.348;2023-10-08T12:35:10;13.50;;;4.83;;
34565;SDS011;20803;42.676;26.348;2023-10-08T12:37:40;11.93;;;4.87;;
34565;SDS011;20803;42.676;26.348;2023-10-08T12:40:09;26.80;;;5.50;;
34565;SDS011;20803;42.676;26.348;2023-10-08T12:42:47;15.47;;;4.90;;
34565;SDS011;20803;42.676;26.348;2023-10-08T12:45:19;18.73;;;5.60;;
34565;SDS011;20803;42.676;26.348;2023-10-08T12:47:48;16.33;;;4.47;;
34565;SDS011;20803;42.676;26.348;2023-10-08T12:50:18;11.63;;;4.23;;
34565;SDS011;20803;42.676;26.348;2023-10-08T12:53:10;16.80;;;4.60;;
34565;SDS011;20803;42.676;26.348;2023-10-08T12:55:39;12.77;;;4.10;;
34565;SDS011;20803;42.676;26.348;2023-10-08T12:58:08;17.07;;;4.47;;
34565;SDS011;20803;42.676;26.348;2023-10-08T13:00:39;13.80;;;4.57;;
34565;SDS011;20803;42.676;26.348;2023-10-08T13:03:07;11.47;;;4.90;;
34565;SDS011;20803;42.676;26.348;2023-10-08T13:05:43;146.23;;;14.70;;
34565;SDS011;20803;42.676;26.348;2023-10-08T13:08:12;19.27;;;5.20;;
34565;SDS011;20803;42.676;26.348;2023-10-08T13:10:39;19.53;;;5.10;;
34565;SDS011;20803;42.676;26.348;2023-10-08T13:13:09;12.60;;;4.50;;
34565;SDS011;20803;42.676;26.348;2023-10-08T13:15:37;16.53;;;5.17;;
34565;SDS011;20803;42.676;26.348;2023-10-08T13:18:08;16.10;;;4.70;;
34565;SDS011;20803;42.676;26.348;2023-10-08T13:20:34;8.40;;;4.23;;
34565;SDS011;20803;42.676;26.348;2023-10-08T13:23:00;16.40;;;5.03;;
34565;SDS011;20803;42.676;26.348;2023-10-08T13:25:26;13.00;;;4.17;;
34565;SDS011;20803;42.676;26.348;2023-10-08T13:27:51;10.40;;;4.07;;
34565;SDS011;20803;42.676;26.348;2023-10-08T13:30:17;12.47;;;3.63;;
34565;SDS011;20803;42.676;26.348;2023-10-08T13:32:43;10.47;;;4.30;;
34565;SDS011;20803;42.676;26.348;2023-10-08T13:35:08;18.07;;;4.70;;
34565;SDS011;20803;42.676;26.348;2023-10-08T13:37:36;13.73;;;4.30;;
34565;SDS011;20803;42.676;26.348;2023-10-08T13:40:02;17.60;;;4.57;;
34565;SDS011;20803;42.676;26.348;2023-10-08T13:42:28;11.43;;;4.20;;
34565;SDS011;20803;42.676;26.348;2023-10-08T13:44:54;9.03;;;4.30;;
34565;SDS011;20803;42.676;26.348;2023-10-08T13:47:32;8.97;;;4.07;;
34565;SDS011;20803;42.676;26.348;2023-10-08T13:49:58;17.53;;;4.53;;
34565;SDS011;20803;42.676;26.348;2023-10-08T13:52:24;12.93;;;4.30;;
34565;SDS011;20803;42.676;26.348;2023-10-08T13:54:53;11.63;;;4.13;;
34565;SDS011;20803;42.676;26.348;2023-10-08T13:57:19;9.80;;;3.93;;
34565;SDS011;20803;42.676;26.348;2023-10-08T13:59:45;7.17;;;3.87;;
34565;SDS011;20803;42.676;26.348;2023-10-08T14:02:12;13.73;;;4.10;;
34565;SDS011;20803;42.676;26.348;2023-10-08T14:04:44;10.93;;;4.37;;
34565;SDS011;20803;42.676;26.348;2023-10-08T14:07:11;23.67;;;4.90;;
34565;SDS011;20803;42.676;26.348;2023-10-08T14:09:43;33.70;;;5.43;;
34565;SDS011;20803;42.676;26.348;2023-10-08T14:12:11;17.10;;;4.60;;
34565;SDS011;20803;42.676;26.348;2023-10-08T14:14:38;16.17;;;4.70;;
34565;SDS011;20803;42.676;26.348;2023-10-08T14:17:11;15.03;;;4.67;;
34565;SDS011;20803;42.676;26.348;2023-10-08T14:20:02;15.20;;;4.83;;
34565;SDS011;20803;42.676;26.348;2023-10-08T14:22:37;13.23;;;4.23;;
34565;SDS011;20803;42.676;26.348;2023-10-08T14:25:03;14.23;;;4.70;;
34565;SDS011;20803;42.676;26.348;2023-10-08T14:27:36;15.80;;;4.57;;
34565;SDS011;20803;42.676;26.348;2023-10-08T14:30:08;18.30;;;5.03;;
34565;SDS011;20803;42.676;26.348;2023-10-08T14:32:43;12.23;;;4.47;;
34565;SDS011;20803;42.676;26.348;2023-10-08T14:35:12;16.27;;;4.60;;
34565;SDS011;20803;42.676;26.348;2023-10-08T14:37:56;11.73;;;4.57;;
34565;SDS011;20803;42.676;26.348;2023-10-08T14:40:40;15.60;;;4.33;;
34565;SDS011;20803;42.676;26.348;2023-10-08T14:43:24;17.07;;;4.90;;
34565;SDS011;20803;42.676;26.348;2023-10-08T14:45:50;14.13;;;5.10;;
34565;SDS011;20803;42.676;26.348;2023-10-08T14:48:17;13.40;;;4.23;;
34565;SDS011;20803;42.676;26.348;2023-10-08T14:50:43;15.57;;;4.83;;
34565;SDS011;20803;42.676;26.348;2023-10-08T14:53:09;23.90;;;6.00;;
34565;SDS011;20803;42.676;26.348;2023-10-08T14:55:35;12.30;;;4.70;;
34565;SDS011;20803;42.676;26.348;2023-10-08T14:58:01;15.23;;;4.23;;
34565;SDS011;20803;42.676;26.348;2023-10-08T15:00:32;13.13;;;4.93;;
34565;SDS011;20803;42.676;26.348;2023-10-08T15:03:01;12.83;;;4.53;;